createdAt,value
2018-08-03T00:00:07.068Z,78.05
2018-08-03T00:01:07.101Z,78.15
2018-08-03T00:02:07.153Z,78.21
2018-08-03T00:03:07.160Z,78.64
2018-08-03T00:04:07.184Z,79.18
2018-08-03T00:05:07.245Z,79.12
2018-08-03T00:06:07.305Z,79.57
2018-08-03T00:07:07.268Z,79.41
2018-08-03T00:08:07.294Z,78.64
2018-08-03T00:09:07.315Z,79.12
2018-08-03T00:10:07.341Z,78.92
2018-08-03T00:11:07.381Z,79.47
2018-08-03T00:12:07.408Z,79.51
2018-08-03T00:13:07.534Z,79.37
2018-08-03T00:14:07.460Z,79.76
2018-08-03T00:15:07.485Z,80.09
2018-08-03T00:16:07.516Z,79.86
2018-08-03T00:17:07.534Z,79.66
2018-08-03T00:18:07.577Z,80.15
2018-08-03T00:19:07.593Z,79.51
2018-08-03T00:20:07.624Z,79.47
2018-08-03T00:21:07.696Z,79.12
2018-08-03T00:23:07.760Z,79.32
2018-08-03T00:24:07.841Z,79.96
2018-08-03T00:25:07.758Z,79.66
2018-08-03T00:26:07.790Z,80.15
2018-08-03T00:27:07.816Z,80.15
2018-08-03T00:28:07.840Z,79.66
2018-08-03T00:29:07.869Z,79.12
2018-08-03T00:30:07.900Z,79.47
2018-08-03T00:31:07.930Z,80.63
2018-08-03T00:32:07.959Z,80.25
2018-08-03T00:33:07.994Z,80.25
2018-08-03T00:34:08.000Z,80.25
2018-08-03T00:35:08.067Z,80.44
2018-08-03T00:36:08.069Z,80.63
2018-08-03T00:37:08.104Z,80.63
2018-08-03T00:38:08.117Z,80.15
2018-08-03T00:39:08.148Z,80.25
2018-08-03T00:40:08.190Z,80.34
2018-08-03T00:41:08.199Z,80.34
2018-08-03T00:42:08.225Z,80.15
2018-08-03T00:43:08.255Z,80.25
2018-08-03T00:44:08.291Z,80.44
2018-08-03T00:45:08.311Z,80.05
2018-08-03T00:46:08.385Z,80.34
2018-08-03T00:47:08.366Z,80.44
2018-08-03T00:48:08.422Z,79.76
2018-08-03T00:49:08.425Z,79.57
2018-08-03T00:50:08.459Z,78.99
2018-08-03T00:51:08.480Z,78.99
2018-08-03T00:52:08.507Z,78.99
2018-08-03T00:53:08.532Z,79.08
2018-08-03T00:54:08.560Z,79.08
2018-08-03T00:55:08.578Z,79.18
2018-08-03T00:56:08.623Z,79.28
2018-08-03T00:57:08.642Z,79.04
2018-08-03T00:58:08.669Z,79.47
2018-08-03T00:59:08.723Z,80.01
2018-08-03T01:00:08.749Z,79.66
2018-08-03T01:01:08.757Z,79.57
2018-08-03T01:02:08.780Z,78.79
2018-08-03T01:03:08.808Z,79.37
2018-08-03T01:05:08.863Z,79.43
2018-08-03T01:07:08.922Z,79.28
2018-08-03T01:08:08.935Z,79.57
2018-08-03T01:09:08.969Z,79.33
2018-08-03T01:11:09.026Z,79.53
2018-08-03T01:12:09.055Z,79.57
2018-08-03T01:13:09.079Z,79.37
2018-08-03T01:14:09.109Z,79.28
2018-08-03T01:15:09.127Z,80.11
2018-08-03T01:16:09.161Z,80.30
2018-08-03T01:17:09.208Z,79.33
2018-08-03T01:18:09.212Z,79.53
2018-08-03T01:19:09.242Z,80.21
2018-08-03T01:20:09.274Z,80.21
2018-08-03T01:21:09.302Z,80.69
2018-08-03T01:22:09.332Z,80.75
2018-08-03T01:23:09.362Z,80.50
2018-08-03T01:24:09.394Z,80.60
2018-08-03T01:25:09.412Z,80.88
2018-08-03T01:26:09.459Z,80.65
2018-08-03T01:27:09.467Z,81.37
2018-08-03T01:28:09.637Z,80.75
2018-08-03T01:29:09.522Z,80.40
2018-08-03T01:30:09.537Z,80.60
2018-08-03T01:31:09.591Z,80.69
2018-08-03T01:32:09.602Z,80.69
2018-08-03T01:33:09.630Z,80.88
2018-08-03T01:34:09.687Z,80.60
2018-08-03T01:35:09.680Z,80.88
2018-08-03T01:36:09.711Z,80.94
2018-08-03T01:37:09.734Z,80.98
2018-08-03T01:38:09.765Z,81.27
2018-08-03T01:39:09.794Z,81.37
2018-08-03T01:40:09.841Z,80.98
2018-08-03T01:41:09.843Z,80.98
2018-08-03T01:42:09.882Z,80.88
2018-08-03T01:43:09.900Z,81.66
2018-08-03T01:44:09.931Z,80.98
2018-08-03T01:45:09.955Z,80.88
2018-08-03T01:47:10.012Z,80.98
2018-08-03T01:48:10.034Z,80.69
2018-08-03T01:49:10.068Z,80.79
2018-08-03T01:50:10.091Z,81.04
2018-08-03T01:51:10.121Z,80.98
2018-08-03T01:52:10.146Z,80.79
2018-08-03T01:53:10.178Z,80.30
2018-08-03T01:54:10.202Z,80.75
2018-08-03T01:55:10.225Z,80.30
2018-08-03T01:56:10.244Z,79.43
2018-08-03T01:57:10.280Z,80.07
2018-08-03T01:58:10.305Z,80.07
2018-08-03T01:59:10.370Z,80.36
2018-08-03T02:00:10.361Z,80.26
2018-08-03T02:01:10.396Z,80.01
2018-08-03T02:02:10.423Z,79.14
2018-08-03T02:03:10.526Z,79.63
2018-08-03T02:04:10.468Z,79.14
2018-08-03T02:05:10.519Z,79.49
2018-08-03T02:06:10.532Z,79.00
2018-08-03T02:07:10.557Z,79.63
2018-08-03T02:08:10.573Z,78.61
2018-08-03T02:09:10.602Z,79.49
2018-08-03T02:10:10.629Z,79.49
2018-08-03T02:11:10.660Z,80.17
2018-08-03T02:12:10.688Z,79.58
2018-08-03T02:13:10.709Z,79.49
2018-08-03T02:14:10.750Z,79.97
2018-08-03T02:15:10.767Z,79.39
2018-08-03T02:16:10.795Z,79.49
2018-08-03T02:18:10.841Z,79.39
2018-08-03T02:19:10.876Z,79.68
2018-08-03T02:20:10.898Z,79.78
2018-08-03T02:21:10.930Z,79.20
2018-08-03T02:22:10.952Z,79.68
2018-08-03T02:23:10.991Z,79.39
2018-08-03T02:24:11.016Z,79.49
2018-08-03T02:25:11.040Z,79.39
2018-08-03T02:26:11.069Z,78.81
2018-08-03T02:27:11.096Z,78.91
2018-08-03T02:28:11.119Z,78.71
2018-08-03T02:29:11.146Z,79.10
2018-08-03T02:30:11.176Z,79.30
2018-08-03T02:31:11.200Z,79.58
2018-08-03T02:32:11.231Z,79.49
2018-08-03T02:33:11.255Z,79.20
2018-08-03T02:34:11.380Z,79.97
2018-08-03T02:35:11.311Z,79.49
2018-08-03T02:36:11.353Z,79.20
2018-08-03T02:37:11.371Z,79.78
2018-08-03T02:38:11.393Z,79.49
2018-08-03T02:39:11.416Z,79.43
2018-08-03T02:40:11.464Z,78.91
2018-08-03T02:41:11.468Z,79.97
2018-08-03T02:43:11.531Z,79.58
2018-08-03T02:44:11.554Z,79.30
2018-08-03T02:45:11.667Z,79.49
2018-08-03T02:46:11.599Z,79.49
2018-08-03T02:47:11.641Z,79.39
2018-08-03T02:48:11.673Z,80.07
2018-08-03T02:49:11.689Z,80.07
2018-08-03T02:50:11.713Z,79.39
2018-08-03T02:51:11.747Z,80.07
2018-08-03T02:53:11.796Z,80.65
2018-08-03T02:54:11.826Z,80.75
2018-08-03T02:55:11.851Z,80.80
2018-08-03T02:56:11.956Z,80.65
2018-08-03T02:57:11.904Z,80.90
2018-08-03T02:58:11.932Z,80.85
2018-08-03T03:00:11.981Z,80.75
2018-08-03T03:01:12.017Z,80.46
2018-08-03T03:02:12.039Z,80.36
2018-08-03T03:03:12.074Z,81.20
2018-08-03T03:04:12.097Z,81.48
2018-08-03T03:05:12.124Z,82.35
2018-08-03T03:06:12.166Z,82.26
2018-08-03T03:07:12.225Z,82.45
2018-08-03T03:08:12.200Z,82.45
2018-08-03T03:09:12.228Z,81.77
2018-08-03T03:10:12.261Z,81.87
2018-08-03T03:11:12.280Z,82.45
2018-08-03T03:12:12.302Z,82.35
2018-08-03T03:13:12.328Z,81.87
2018-08-03T03:14:13.205Z,81.68
2018-08-03T03:15:12.392Z,82.07
2018-08-03T03:16:12.425Z,82.45
2018-08-03T03:17:12.443Z,82.35
2018-08-03T03:18:12.478Z,82.94
2018-08-03T03:19:12.492Z,82.94
2018-08-03T03:20:12.533Z,83.48
2018-08-03T03:21:12.554Z,83.23
2018-08-03T03:22:12.577Z,82.94
2018-08-03T03:23:12.601Z,83.13
2018-08-03T03:24:12.627Z,83.03
2018-08-03T03:25:12.652Z,82.84
2018-08-03T03:26:12.680Z,82.35
2018-08-03T03:27:33.724Z,83.13
2018-08-03T03:28:12.757Z,83.03
2018-08-03T03:29:12.764Z,82.45
2018-08-03T03:30:12.792Z,83.03
2018-08-03T03:31:12.824Z,83.62
2018-08-03T03:32:12.843Z,83.96
2018-08-03T03:33:12.872Z,83.72
2018-08-03T03:34:12.895Z,83.52
2018-08-03T03:35:12.930Z,83.81
2018-08-03T03:36:12.953Z,84.35
2018-08-03T03:37:12.980Z,84.83
2018-08-03T03:38:13.031Z,84.20
2018-08-03T03:39:13.045Z,84.16
2018-08-03T03:40:13.059Z,84.55
2018-08-03T03:41:13.078Z,84.64
2018-08-03T03:42:13.109Z,84.83
2018-08-03T03:43:13.144Z,85.13
2018-08-03T03:44:13.179Z,85.03
2018-08-03T03:45:13.202Z,84.64
2018-08-03T03:46:13.213Z,84.10
2018-08-03T03:47:13.251Z,84.06
2018-08-03T03:48:13.272Z,84.83
2018-08-03T03:50:13.326Z,84.68
2018-08-03T03:51:13.354Z,84.16
2018-08-03T03:52:13.371Z,84.83
2018-08-03T03:53:13.408Z,84.93
2018-08-03T03:54:13.431Z,84.55
2018-08-03T03:55:13.458Z,84.00
2018-08-03T03:56:13.484Z,84.39
2018-08-03T03:57:13.515Z,83.91
2018-08-03T03:58:13.536Z,84.39
2018-08-03T03:59:13.593Z,84.83
2018-08-03T04:00:13.592Z,84.64
2018-08-03T04:01:13.626Z,85.13
2018-08-03T04:02:13.636Z,85.13
2018-08-03T04:03:13.672Z,85.41
2018-08-03T04:05:13.724Z,85.13
2018-08-03T04:06:13.748Z,85.03
2018-08-03T04:07:13.782Z,85.17
2018-08-03T04:08:13.806Z,85.51
2018-08-03T04:09:13.840Z,85.51
2018-08-03T04:10:13.858Z,85.51
2018-08-03T04:11:13.884Z,85.22
2018-08-03T04:12:13.941Z,85.31
2018-08-03T04:13:13.945Z,85.31
2018-08-03T04:14:13.963Z,85.17
2018-08-03T04:15:13.989Z,85.22
2018-08-03T04:16:14.023Z,85.22
2018-08-03T04:17:14.041Z,85.51
2018-08-03T04:18:14.068Z,85.71
2018-08-03T04:19:14.110Z,85.41
2018-08-03T04:20:14.124Z,85.22
2018-08-03T04:21:14.150Z,85.61
2018-08-03T04:22:14.174Z,85.61
2018-08-03T04:23:14.202Z,86.09
2018-08-03T04:24:14.231Z,85.90
2018-08-03T04:25:14.250Z,85.46
2018-08-03T04:26:14.282Z,85.17
2018-08-03T04:27:14.303Z,85.22
2018-08-03T04:28:14.327Z,85.71
2018-08-03T04:29:14.368Z,86.48
2018-08-03T04:30:14.384Z,85.90
2018-08-03T04:31:14.703Z,86.09
2018-08-03T04:32:14.440Z,85.90
2018-08-03T04:33:14.476Z,86.19
2018-08-03T04:34:14.495Z,85.71
2018-08-03T04:35:14.519Z,85.71
2018-08-03T04:36:14.549Z,85.22
2018-08-03T04:37:14.577Z,85.90
2018-08-03T04:38:14.627Z,85.51
2018-08-03T04:39:14.631Z,85.31
2018-08-03T04:40:14.659Z,85.22
2018-08-03T04:41:14.687Z,85.71
2018-08-03T04:42:14.773Z,85.61
2018-08-03T04:43:14.732Z,85.71
2018-08-03T04:44:14.758Z,85.71
2018-08-03T04:45:14.788Z,86.00
2018-08-03T04:46:14.818Z,86.19
2018-08-03T04:47:14.835Z,85.71
2018-08-03T04:48:14.866Z,85.51
2018-08-03T04:49:14.897Z,85.90
2018-08-03T04:50:14.923Z,85.41
2018-08-03T04:51:14.943Z,86.09
2018-08-03T04:52:14.974Z,85.41
2018-08-03T04:53:15.001Z,85.31
2018-08-03T04:54:15.020Z,85.41
2018-08-03T04:55:15.052Z,85.51
2018-08-03T04:56:15.068Z,85.13
2018-08-03T04:57:15.105Z,85.51
2018-08-03T04:58:15.130Z,85.22
2018-08-03T04:59:15.154Z,84.93
2018-08-03T05:00:15.183Z,84.93
2018-08-03T05:01:15.207Z,84.55
2018-08-03T05:02:15.232Z,84.55
2018-08-03T05:03:15.258Z,84.45
2018-08-03T05:04:15.300Z,84.55
2018-08-03T05:05:15.324Z,84.25
2018-08-03T05:06:15.338Z,83.58
2018-08-03T05:07:15.369Z,83.58
2018-08-03T05:09:15.435Z,83.67
2018-08-03T05:10:15.451Z,82.94
2018-08-03T05:11:15.475Z,83.18
2018-08-03T05:12:15.507Z,83.67
2018-08-03T05:13:15.542Z,84.16
2018-08-03T05:14:15.565Z,84.16
2018-08-03T05:15:15.581Z,84.25
2018-08-03T05:16:15.616Z,84.74
2018-08-03T05:17:15.634Z,84.16
2018-08-03T05:18:15.654Z,84.16
2018-08-03T05:19:15.686Z,84.16
2018-08-03T05:21:15.747Z,83.86
2018-08-03T05:22:15.765Z,84.45
2018-08-03T05:23:15.793Z,84.06
2018-08-03T05:24:15.828Z,84.06
2018-08-03T05:25:15.844Z,83.96
2018-08-03T05:26:15.862Z,83.81
2018-08-03T05:27:15.891Z,83.23
2018-08-03T05:28:15.945Z,82.94
2018-08-03T05:29:15.953Z,82.94
2018-08-03T05:30:15.986Z,82.84
2018-08-03T05:31:16.009Z,82.94
2018-08-03T05:32:18.016Z,83.52
2018-08-03T05:33:16.060Z,83.03
2018-08-03T05:34:16.088Z,84.10
2018-08-03T05:35:16.147Z,84.35
2018-08-03T05:36:16.192Z,84.55
2018-08-03T05:37:16.175Z,84.64
2018-08-03T05:38:16.189Z,85.22
2018-08-03T05:39:16.217Z,84.83
2018-08-03T05:40:16.249Z,85.07
2018-08-03T05:41:16.332Z,84.83
2018-08-03T05:42:16.294Z,84.93
2018-08-03T05:43:16.323Z,84.20
2018-08-03T05:44:16.349Z,84.30
2018-08-03T05:45:16.383Z,84.78
2018-08-03T05:46:16.403Z,85.13
2018-08-03T05:47:16.428Z,84.58
2018-08-03T05:48:16.457Z,84.10
2018-08-03T05:49:16.488Z,83.62
2018-08-03T05:50:16.594Z,83.91
2018-08-03T05:51:16.534Z,83.33
2018-08-03T05:52:16.613Z,82.75
2018-08-03T05:53:16.595Z,83.52
2018-08-03T05:54:16.623Z,83.42
2018-08-03T05:55:16.645Z,83.52
2018-08-03T05:56:16.669Z,83.33
2018-08-03T05:57:16.736Z,83.03
2018-08-03T05:58:16.730Z,82.84
2018-08-03T05:59:16.752Z,82.84
2018-08-03T06:00:16.777Z,82.88
2018-08-03T06:01:16.807Z,82.20
2018-08-03T06:02:16.844Z,82.10
2018-08-03T06:03:16.867Z,82.59
2018-08-03T06:04:16.887Z,82.50
2018-08-03T06:05:16.923Z,82.01
2018-08-03T06:06:16.930Z,81.72
2018-08-03T06:07:16.966Z,81.52
2018-08-03T06:08:17.099Z,81.91
2018-08-03T06:09:17.030Z,81.91
2018-08-03T06:10:17.049Z,81.82
2018-08-03T06:11:17.080Z,82.10
2018-08-03T06:12:17.112Z,81.13
2018-08-03T06:13:17.122Z,81.23
2018-08-03T06:14:17.166Z,81.23
2018-08-03T06:15:17.180Z,80.94
2018-08-03T06:16:17.216Z,80.85
2018-08-03T06:17:17.228Z,80.46
2018-08-03T06:18:17.260Z,80.26
2018-08-03T06:19:17.288Z,80.55
2018-08-03T06:20:17.316Z,80.46
2018-08-03T06:21:17.343Z,80.85
2018-08-03T06:22:17.367Z,80.85
2018-08-03T06:23:17.411Z,80.26
2018-08-03T06:24:17.429Z,80.85
2018-08-03T06:25:17.454Z,80.50
2018-08-03T06:26:17.482Z,80.60
2018-08-03T06:27:17.505Z,80.88
2018-08-03T06:28:17.536Z,80.01
2018-08-03T06:29:17.559Z,79.82
2018-08-03T06:30:17.588Z,80.26
2018-08-03T06:31:17.618Z,80.21
2018-08-03T06:32:17.642Z,80.36
2018-08-03T06:33:17.663Z,80.30
2018-08-03T06:34:17.688Z,80.50
2018-08-03T06:35:17.740Z,80.30
2018-08-03T06:36:17.752Z,80.01
2018-08-03T06:37:17.779Z,79.63
2018-08-03T06:38:17.900Z,80.11
2018-08-03T06:39:17.830Z,79.53
2018-08-03T06:40:17.868Z,79.91
2018-08-03T06:41:17.890Z,79.63
2018-08-03T06:42:17.914Z,79.53
2018-08-03T06:43:17.938Z,79.82
2018-08-03T06:44:17.966Z,79.82
2018-08-03T06:45:17.998Z,79.33
2018-08-03T06:46:18.028Z,79.43
2018-08-03T06:47:18.051Z,79.82
2018-08-03T06:48:18.119Z,79.33
2018-08-03T06:49:18.117Z,79.53
2018-08-03T06:50:18.123Z,79.76
2018-08-03T06:51:18.161Z,79.53
2018-08-03T06:52:18.183Z,79.63
2018-08-03T06:53:18.215Z,79.04
2018-08-03T06:54:18.241Z,79.66
2018-08-03T06:55:18.271Z,78.79
2018-08-03T06:56:18.301Z,79.57
2018-08-03T06:57:18.323Z,79.66
2018-08-03T06:58:18.370Z,78.89
2018-08-03T06:59:18.388Z,79.08
2018-08-03T07:00:18.443Z,78.75
2018-08-03T07:02:18.468Z,78.79
2018-08-03T07:03:18.491Z,79.86
2018-08-03T07:04:18.528Z,79.18
2018-08-03T07:05:18.562Z,78.69
2018-08-03T07:06:18.571Z,78.69
2018-08-03T07:07:18.597Z,79.08
2018-08-03T07:08:18.625Z,78.99
2018-08-03T07:09:18.661Z,78.59
2018-08-03T07:10:18.690Z,79.08
2018-08-03T07:11:18.705Z,78.50
2018-08-03T07:12:18.736Z,78.21
2018-08-03T07:13:18.771Z,78.69
2018-08-03T07:14:18.786Z,78.79
2018-08-03T07:15:18.824Z,78.34
2018-08-03T07:16:18.842Z,78.34
2018-08-03T07:17:18.874Z,78.54
2018-08-03T07:18:18.906Z,78.44
2018-08-03T07:19:18.931Z,78.34
2018-08-03T07:20:19.077Z,78.64
2018-08-03T07:21:18.982Z,78.25
2018-08-03T07:22:19.016Z,78.34
2018-08-03T07:23:19.039Z,78.34
2018-08-03T07:24:19.068Z,78.25
2018-08-03T07:25:19.095Z,78.34
2018-08-03T07:26:19.129Z,78.83
2018-08-03T07:27:19.151Z,78.73
2018-08-03T07:28:19.184Z,78.44
2018-08-03T07:29:19.236Z,78.15
2018-08-03T07:30:19.240Z,78.25
2018-08-03T07:31:19.260Z,78.05
2018-08-03T07:32:19.294Z,78.83
2018-08-03T07:33:19.332Z,78.25
2018-08-03T07:34:19.343Z,78.64
2018-08-03T07:35:19.380Z,78.25
2018-08-03T07:36:19.400Z,78.54
2018-08-03T07:37:19.498Z,78.44
2018-08-03T07:38:19.453Z,78.64
2018-08-03T07:39:19.502Z,78.64
2018-08-03T07:40:19.510Z,77.95
2018-08-03T07:41:19.553Z,78.15
2018-08-03T07:42:19.572Z,78.54
2018-08-03T07:43:19.724Z,77.86
2018-08-03T07:44:19.692Z,78.19
2018-08-03T07:45:19.688Z,78.05
2018-08-03T07:46:19.676Z,77.61
2018-08-03T07:47:19.711Z,77.86
2018-08-03T07:50:19.793Z,77.61
2018-08-03T07:51:19.832Z,77.90
2018-08-03T07:53:19.882Z,77.51
2018-08-03T07:54:19.908Z,77.80
2018-08-03T07:55:19.944Z,77.80
2018-08-03T07:56:19.966Z,76.92
2018-08-03T07:57:20.016Z,76.92
2018-08-03T07:58:20.021Z,76.44
2018-08-03T08:00:20.077Z,76.73
2018-08-03T08:01:20.107Z,76.73
2018-08-03T08:02:20.125Z,76.25
2018-08-03T08:03:20.203Z,76.73
2018-08-03T08:04:20.188Z,76.73
2018-08-03T08:05:20.223Z,76.25
2018-08-03T08:06:20.271Z,76.25
2018-08-03T08:07:20.289Z,76.34
2018-08-03T08:08:20.310Z,76.05
2018-08-03T08:09:20.333Z,76.25
2018-08-03T08:10:20.358Z,76.25
2018-08-03T08:11:20.381Z,75.85
2018-08-03T08:12:20.415Z,75.95
2018-08-03T08:13:20.444Z,76.54
2018-08-03T08:14:20.472Z,75.76
2018-08-03T08:15:20.541Z,76.25
2018-08-03T08:16:20.534Z,76.09
2018-08-03T08:17:20.550Z,75.67
2018-08-03T08:18:20.596Z,75.99
2018-08-03T08:19:20.613Z,75.89
2018-08-03T08:20:20.645Z,75.80
2018-08-03T08:21:20.670Z,75.60
2018-08-03T08:22:20.697Z,75.60
2018-08-03T08:23:20.721Z,75.99
2018-08-03T08:24:20.756Z,75.80
2018-08-03T08:25:20.790Z,75.12
2018-08-03T08:26:20.819Z,76.18
2018-08-03T08:27:20.840Z,75.80
2018-08-03T08:28:20.881Z,75.80
2018-08-03T08:29:20.898Z,75.99
2018-08-03T08:30:20.925Z,75.89
2018-08-03T08:31:21.008Z,75.99
2018-08-03T08:32:23.888Z,75.80
2018-08-03T08:33:21.012Z,75.51
2018-08-03T08:34:21.043Z,75.89
2018-08-03T08:35:21.069Z,76.18
2018-08-03T08:36:21.104Z,75.99
2018-08-03T08:37:21.138Z,75.64
2018-08-03T08:38:21.158Z,75.45
2018-08-03T08:39:21.188Z,75.45
2018-08-03T08:40:21.213Z,75.31
2018-08-03T08:41:21.241Z,75.51
2018-08-03T08:42:21.272Z,75.60
2018-08-03T08:43:21.299Z,75.41
2018-08-03T08:44:21.340Z,74.76
2018-08-03T08:45:21.351Z,74.96
2018-08-03T08:46:21.394Z,74.73
2018-08-03T08:47:21.430Z,74.82
2018-08-03T08:48:21.436Z,74.82
2018-08-03T08:49:21.471Z,74.73
2018-08-03T08:50:21.496Z,75.21
2018-08-03T08:51:21.529Z,74.92
2018-08-03T08:52:21.566Z,74.67
2018-08-03T08:53:21.622Z,74.73
2018-08-03T08:54:21.617Z,75.15
2018-08-03T08:55:21.668Z,74.57
2018-08-03T08:56:21.669Z,73.89
2018-08-03T08:57:21.700Z,73.89
2018-08-03T08:58:21.728Z,73.99
2018-08-03T08:59:21.756Z,74.08
2018-08-03T09:00:21.786Z,74.57
2018-08-03T09:01:21.816Z,74.67
2018-08-03T09:02:42.874Z,74.76
2018-08-03T09:03:21.875Z,74.96
2018-08-03T09:04:21.897Z,74.61
2018-08-03T09:05:21.932Z,75.19
2018-08-03T09:06:21.961Z,74.86
2018-08-03T09:07:22.053Z,74.61
2018-08-03T09:08:22.018Z,73.93
2018-08-03T09:09:22.067Z,73.93
2018-08-03T09:10:22.076Z,74.32
2018-08-03T09:11:22.103Z,74.41
2018-08-03T09:12:22.137Z,74.38
2018-08-03T09:13:22.164Z,74.12
2018-08-03T09:14:22.185Z,73.73
2018-08-03T09:15:22.221Z,73.44
2018-08-03T09:16:22.254Z,74.12
2018-08-03T09:17:22.286Z,73.73
2018-08-03T09:18:22.333Z,73.15
2018-08-03T09:20:22.369Z,72.37
2018-08-03T09:21:22.442Z,72.56
2018-08-03T09:22:22.472Z,72.37
2018-08-03T09:23:22.473Z,72.17
2018-08-03T09:24:22.484Z,72.27
2018-08-03T09:25:22.511Z,72.17
2018-08-03T09:26:22.532Z,71.88
2018-08-03T09:27:22.566Z,71.78
2018-08-03T09:28:22.628Z,71.82
2018-08-03T09:29:22.626Z,71.23
2018-08-03T09:30:22.657Z,71.20
2018-08-03T09:31:22.691Z,70.91
2018-08-03T09:32:22.717Z,71.30
2018-08-03T09:33:22.739Z,71.20
2018-08-03T09:34:22.771Z,70.32
2018-08-03T09:35:22.809Z,70.52
2018-08-03T09:36:22.854Z,70.56
2018-08-03T09:37:22.863Z,70.65
2018-08-03T09:38:22.893Z,70.46
2018-08-03T09:39:22.922Z,70.65
2018-08-03T09:40:22.946Z,70.75
2018-08-03T09:41:22.970Z,70.17
2018-08-03T09:42:23.008Z,69.68
2018-08-03T09:43:23.032Z,69.48
2018-08-03T09:44:23.064Z,69.78
2018-08-03T09:45:23.096Z,69.78
2018-08-03T09:46:23.124Z,69.78
2018-08-03T09:47:23.153Z,69.97
2018-08-03T09:48:23.196Z,68.93
2018-08-03T09:49:23.222Z,69.78
2018-08-03T09:50:23.253Z,69.52
2018-08-03T09:51:23.268Z,68.93
2018-08-03T09:52:23.300Z,68.74
2018-08-03T09:53:23.329Z,68.45
2018-08-03T09:54:23.456Z,69.00
2018-08-03T09:55:23.523Z,69.32
2018-08-03T09:56:23.416Z,68.45
2018-08-03T09:57:23.447Z,67.77
2018-08-03T09:58:23.469Z,67.67
2018-08-03T09:59:23.504Z,67.57
2018-08-03T10:00:23.535Z,67.38
2018-08-03T10:01:23.567Z,67.38
2018-08-03T10:02:23.592Z,67.77
2018-08-03T10:03:23.625Z,67.77
2018-08-03T10:04:23.653Z,68.06
2018-08-03T10:05:23.688Z,66.02
2018-08-03T10:07:23.785Z,67.18
2018-08-03T10:08:23.773Z,67.38
2018-08-03T10:09:23.805Z,67.18
2018-08-03T10:10:23.840Z,66.79
2018-08-03T10:11:23.864Z,66.05
2018-08-03T10:12:23.887Z,65.85
2018-08-03T10:13:23.917Z,66.14
2018-08-03T10:14:23.947Z,66.73
2018-08-03T10:15:23.974Z,67.18
2018-08-03T10:16:24.004Z,66.79
2018-08-03T10:17:24.039Z,67.38
2018-08-03T10:18:24.060Z,65.46
2018-08-03T10:19:24.096Z,64.87
2018-08-03T10:20:24.159Z,64.97
2018-08-03T10:21:24.152Z,65.56
2018-08-03T10:22:24.227Z,66.05
2018-08-03T10:23:24.211Z,65.17
2018-08-03T10:24:24.252Z,64.87
2018-08-03T10:25:24.273Z,64.97
2018-08-03T10:26:24.314Z,64.78
2018-08-03T10:27:24.358Z,65.07
2018-08-03T10:28:24.368Z,65.78
2018-08-03T10:29:24.402Z,65.40
2018-08-03T10:30:24.421Z,65.23
2018-08-03T10:31:24.446Z,64.81
2018-08-03T10:32:24.490Z,65.01
2018-08-03T10:33:24.539Z,65.36
2018-08-03T10:34:24.545Z,65.26
2018-08-03T10:35:24.600Z,65.36
2018-08-03T10:36:24.611Z,65.36
2018-08-03T10:37:24.634Z,65.40
2018-08-03T10:38:24.667Z,65.46
2018-08-03T10:39:24.685Z,65.85
2018-08-03T10:40:24.728Z,66.05
2018-08-03T10:41:24.751Z,66.17
2018-08-03T10:42:24.776Z,65.01
2018-08-03T10:43:24.809Z,64.52
2018-08-03T10:44:24.860Z,64.81
2018-08-03T10:45:24.870Z,64.52
2018-08-03T10:46:24.920Z,64.52
2018-08-03T10:47:24.933Z,64.52
2018-08-03T10:48:24.970Z,63.57
2018-08-03T10:49:25.005Z,61.82
2018-08-03T10:50:25.039Z,61.24
2018-08-03T10:51:25.097Z,61.92
2018-08-03T10:52:25.089Z,62.79
2018-08-03T10:53:25.105Z,63.93
2018-08-03T10:54:25.141Z,62.86
2018-08-03T10:55:25.261Z,62.47
2018-08-03T10:56:25.204Z,63.45
2018-08-03T10:57:25.233Z,62.41
2018-08-03T10:58:25.330Z,62.31
2018-08-03T10:59:25.294Z,63.25
2018-08-03T11:00:25.333Z,61.72
2018-08-03T11:01:25.401Z,59.77
2018-08-03T11:02:25.389Z,59.41
2018-08-03T11:03:25.415Z,59.67
2018-08-03T11:04:25.466Z,60.26
2018-08-03T11:05:25.476Z,59.87
2018-08-03T11:06:25.503Z,59.38
2018-08-03T11:07:25.540Z,59.67
2018-08-03T11:08:25.580Z,59.09
2018-08-03T11:09:25.596Z,59.09
2018-08-03T11:10:25.631Z,58.80
2018-08-03T11:12:25.684Z,59.02
2018-08-03T11:13:25.714Z,59.12
2018-08-03T11:14:25.748Z,59.12
2018-08-03T11:15:25.780Z,59.28
2018-08-03T11:16:25.808Z,58.89
2018-08-03T11:17:25.841Z,58.50
2018-08-03T11:18:25.869Z,59.48
2018-08-03T11:19:25.905Z,58.89
2018-08-03T11:20:25.925Z,57.82
2018-08-03T11:21:25.961Z,58.22
2018-08-03T11:22:25.990Z,56.97
2018-08-03T11:23:26.022Z,55.15
2018-08-03T11:24:26.050Z,53.78
2018-08-03T11:25:26.088Z,53.39
2018-08-03T11:26:26.109Z,53.19
2018-08-03T11:27:26.142Z,53.58
2018-08-03T11:28:26.172Z,54.46
2018-08-03T11:29:26.209Z,55.22
2018-08-03T11:30:26.228Z,55.12
2018-08-03T11:31:26.259Z,55.34
2018-08-03T11:32:26.306Z,55.24
2018-08-03T11:33:26.355Z,54.95
2018-08-03T11:34:26.360Z,55.24
2018-08-03T11:35:26.392Z,56.29
2018-08-03T11:36:26.419Z,55.80
2018-08-03T11:37:26.450Z,56.10
2018-08-03T11:38:26.493Z,56.20
2018-08-03T11:39:26.542Z,55.71
2018-08-03T11:40:26.540Z,52.80
2018-08-03T11:41:26.577Z,52.80
2018-08-03T11:42:26.595Z,50.61
2018-08-03T11:43:26.643Z,50.22
2018-08-03T11:44:26.667Z,50.02
2018-08-03T11:45:26.693Z,49.80
2018-08-03T11:46:26.725Z,50.59
2018-08-03T11:47:26.764Z,51.73
2018-08-03T11:48:26.796Z,51.86
2018-08-03T11:49:26.823Z,51.53
2018-08-03T11:50:26.842Z,51.17
2018-08-03T11:51:26.880Z,51.66
2018-08-03T11:52:26.908Z,51.76
2018-08-03T11:53:26.956Z,50.88
2018-08-03T11:54:26.976Z,51.37
2018-08-03T11:56:27.043Z,52.05
2018-08-03T11:57:27.067Z,52.15
2018-08-03T11:58:27.097Z,51.76
2018-08-03T11:59:27.138Z,48.75
2018-08-03T12:00:27.162Z,47.28
2018-08-03T12:01:27.195Z,47.09
2018-08-03T12:02:27.218Z,47.09
2018-08-03T12:03:27.258Z,47.28
2018-08-03T12:04:27.310Z,48.65
2018-08-03T12:05:27.311Z,49.14
2018-08-03T12:06:27.404Z,48.85
2018-08-03T12:07:27.384Z,47.99
2018-08-03T12:08:27.416Z,48.97
2018-08-03T12:09:27.439Z,48.94
2018-08-03T12:10:27.486Z,48.94
2018-08-03T12:11:27.512Z,49.53
2018-08-03T12:12:27.586Z,48.77
2018-08-03T12:13:27.577Z,48.09
2018-08-03T12:14:27.603Z,46.92
2018-08-03T12:15:27.636Z,47.21
2018-08-03T12:17:27.703Z,48.28
2018-08-03T12:18:27.739Z,49.14
2018-08-03T12:19:27.755Z,49.55
2018-08-03T12:20:27.799Z,49.85
2018-08-03T12:21:29.818Z,50.54
2018-08-03T12:22:27.852Z,48.97
2018-08-03T12:23:27.914Z,49.16
2018-08-03T12:24:27.922Z,48.97
2018-08-03T12:25:27.955Z,46.92
2018-08-03T12:26:27.985Z,48.94
2018-08-03T12:28:28.053Z,47.60
2018-08-03T12:29:28.080Z,48.77
2018-08-03T12:30:28.118Z,48.97
2018-08-03T12:31:28.188Z,47.60
2018-08-03T12:32:28.183Z,48.94
2018-08-03T12:33:28.206Z,48.28
2018-08-03T12:34:28.244Z,48.19
2018-08-03T12:35:28.352Z,46.94
2018-08-03T12:36:28.305Z,47.80
2018-08-03T12:37:28.340Z,47.99
2018-08-03T12:38:28.373Z,46.37
2018-08-03T12:39:28.404Z,46.47
2018-08-03T12:40:28.438Z,46.55
2018-08-03T12:41:28.464Z,46.65
2018-08-03T12:42:28.503Z,48.28
2018-08-03T12:43:28.532Z,47.04
2018-08-03T12:44:28.561Z,47.31
2018-08-03T12:45:33.994Z,48.11
2018-08-03T12:46:28.636Z,47.11
2018-08-03T12:47:28.655Z,46.92
2018-08-03T12:49:28.717Z,46.94
2018-08-03T12:50:28.810Z,47.04
2018-08-03T12:51:28.816Z,46.94
2018-08-03T12:52:28.844Z,46.65
2018-08-03T12:53:28.844Z,47.63
2018-08-03T12:54:28.878Z,48.68
2018-08-03T12:55:28.907Z,48.70
2018-08-03T12:56:28.948Z,49.55
2018-08-03T12:57:28.968Z,48.41
2018-08-03T12:58:29.009Z,48.58
2018-08-03T12:59:29.054Z,48.60
2018-08-03T13:00:29.070Z,47.82
2018-08-03T13:01:29.115Z,47.80
2018-08-03T13:02:29.187Z,47.14
2018-08-03T13:03:29.182Z,47.31
2018-08-03T13:04:29.241Z,47.70
2018-08-03T13:05:29.240Z,48.48
2018-08-03T13:06:29.267Z,47.60
2018-08-03T13:07:29.309Z,47.72
2018-08-03T13:08:29.362Z,47.60
2018-08-03T13:09:29.357Z,48.38
2018-08-03T13:10:29.405Z,47.41
2018-08-03T13:11:29.420Z,46.84
2018-08-03T13:12:29.444Z,46.94
2018-08-03T13:13:29.477Z,46.36
2018-08-03T13:14:29.517Z,46.84
2018-08-03T13:15:29.543Z,46.94
2018-08-03T13:16:29.578Z,46.45
2018-08-03T13:17:29.626Z,45.65